Penacook, New Hampshire
Current Conditions -  °F | °C
As of 7:11 PM on Sunday 21 Dec 2014 (Local Time) from KCON Reporting Station
Overcast Overcast  
Wind Chill: 30°   Ceiling: 2500
Heat Index: 30°   Visibility: 10mi
Dew Point: 27°   Wind: 0mph
Humidity: 88%   Direction: NA
Pressure: 30.35"   Gusts: NA
Location:  43.3208°N, 71.6638°W
Report Text: KCON 220011Z AUTO 00000KT 10SM BKN025 OVC044 M01/M03 A3035 RMK AO2 T10111028
Loading
Personal Weather Stations






























Interactive Weather Map New forecast layout! Learn more

10-Day Weather Forecast

Advertisements
Track Severe Weather on mobile